sensor_id;sensor_type;location;lat;lon;timestamp;P1;durP1;ratioP1;P2;durP2;ratioP2
38113;SDS011;23926;53.222;6.354;2023-04-25T00:01:16;20.65;;;4.65;;
38113;SDS011;23926;53.222;6.354;2023-04-25T00:03:41;32.75;;;4.75;;
38113;SDS011;23926;53.222;6.354;2023-04-25T00:06:07;21.05;;;4.80;;
38113;SDS011;23926;53.222;6.354;2023-04-25T00:08:33;26.50;;;4.68;;
38113;SDS011;23926;53.222;6.354;2023-04-25T00:10:59;29.00;;;5.03;;
38113;SDS011;23926;53.222;6.354;2023-04-25T00:13:24;19.73;;;4.57;;
38113;SDS011;23926;53.222;6.354;2023-04-25T00:15:50;21.27;;;4.25;;
38113;SDS011;23926;53.222;6.354;2023-04-25T00:18:18;15.98;;;3.42;;
38113;SDS011;23926;53.222;6.354;2023-04-25T00:20:44;15.82;;;3.70;;
38113;SDS011;23926;53.222;6.354;2023-04-25T00:23:15;15.00;;;3.00;;
38113;SDS011;23926;53.222;6.354;2023-04-25T00:25:46;17.00;;;3.25;;
38113;SDS011;23926;53.222;6.354;2023-04-25T00:28:13;20.20;;;3.08;;
38113;SDS011;23926;53.222;6.354;2023-04-25T00:30:39;15.50;;;3.45;;
38113;SDS011;23926;53.222;6.354;2023-04-25T00:33:05;19.08;;;3.22;;
38113;SDS011;23926;53.222;6.354;2023-04-25T00:35:31;14.77;;;3.58;;
38113;SDS011;23926;53.222;6.354;2023-04-25T00:37:57;11.68;;;3.00;;
38113;SDS011;23926;53.222;6.354;2023-04-25T00:40:22;12.18;;;2.90;;
38113;SDS011;23926;53.222;6.354;2023-04-25T00:42:47;16.75;;;3.88;;
38113;SDS011;23926;53.222;6.354;2023-04-25T00:45:14;22.13;;;3.67;;
38113;SDS011;23926;53.222;6.354;2023-04-25T00:47:40;18.52;;;3.33;;
38113;SDS011;23926;53.222;6.354;2023-04-25T00:50:07;10.38;;;2.85;;
38113;SDS011;23926;53.222;6.354;2023-04-25T00:52:33;12.90;;;2.53;;
38113;SDS011;23926;53.222;6.354;2023-04-25T00:54:59;26.20;;;4.38;;
38113;SDS011;23926;53.222;6.354;2023-04-25T00:57:25;18.42;;;3.67;;
38113;SDS011;23926;53.222;6.354;2023-04-25T00:59:51;12.18;;;3.13;;
38113;SDS011;23926;53.222;6.354;2023-04-25T01:02:18;13.30;;;3.22;;
38113;SDS011;23926;53.222;6.354;2023-04-25T01:04:44;12.48;;;2.97;;
38113;SDS011;23926;53.222;6.354;2023-04-25T01:07:10;16.85;;;3.88;;
38113;SDS011;23926;53.222;6.354;2023-04-25T01:09:35;18.95;;;3.22;;
38113;SDS011;23926;53.222;6.354;2023-04-25T01:12:01;15.90;;;3.40;;
38113;SDS011;23926;53.222;6.354;2023-04-25T01:14:27;14.13;;;3.00;;
38113;SDS011;23926;53.222;6.354;2023-04-25T01:16:53;12.32;;;2.72;;
38113;SDS011;23926;53.222;6.354;2023-04-25T01:19:19;19.50;;;2.78;;
38113;SDS011;23926;53.222;6.354;2023-04-25T01:21:45;18.00;;;3.33;;
38113;SDS011;23926;53.222;6.354;2023-04-25T01:24:11;11.52;;;2.72;;
38113;SDS011;23926;53.222;6.354;2023-04-25T01:26:37;12.23;;;2.83;;
38113;SDS011;23926;53.222;6.354;2023-04-25T01:29:03;13.70;;;3.38;;
38113;SDS011;23926;53.222;6.354;2023-04-25T01:31:29;13.90;;;3.35;;
38113;SDS011;23926;53.222;6.354;2023-04-25T01:33:56;18.13;;;2.78;;
38113;SDS011;23926;53.222;6.354;2023-04-25T01:36:22;20.20;;;2.85;;
38113;SDS011;23926;53.222;6.354;2023-04-25T01:38:47;17.05;;;2.83;;
38113;SDS011;23926;53.222;6.354;2023-04-25T01:41:13;15.38;;;3.00;;
38113;SDS011;23926;53.222;6.354;2023-04-25T01:43:40;14.13;;;2.72;;
38113;SDS011;23926;53.222;6.354;2023-04-25T01:46:05;14.52;;;2.78;;
38113;SDS011;23926;53.222;6.354;2023-04-25T01:48:31;20.05;;;3.60;;
38113;SDS011;23926;53.222;6.354;2023-04-25T01:50:57;15.68;;;3.10;;
38113;SDS011;23926;53.222;6.354;2023-04-25T01:53:22;10.10;;;2.92;;
38113;SDS011;23926;53.222;6.354;2023-04-25T01:55:50;11.20;;;2.75;;
38113;SDS011;23926;53.222;6.354;2023-04-25T01:58:15;15.48;;;2.90;;
38113;SDS011;23926;53.222;6.354;2023-04-25T02:00:40;18.88;;;3.65;;
38113;SDS011;23926;53.222;6.354;2023-04-25T02:03:06;15.82;;;2.58;;
38113;SDS011;23926;53.222;6.354;2023-04-25T02:05:36;19.83;;;3.45;;
38113;SDS011;23926;53.222;6.354;2023-04-25T02:08:05;15.65;;;3.15;;
38113;SDS011;23926;53.222;6.354;2023-04-25T02:10:32;22.30;;;3.05;;
38113;SDS011;23926;53.222;6.354;2023-04-25T02:12:57;14.98;;;3.40;;
38113;SDS011;23926;53.222;6.354;2023-04-25T02:15:23;18.20;;;3.20;;
38113;SDS011;23926;53.222;6.354;2023-04-25T02:17:49;24.67;;;3.90;;
38113;SDS011;23926;53.222;6.354;2023-04-25T02:20:14;14.02;;;3.10;;
38113;SDS011;23926;53.222;6.354;2023-04-25T02:22:41;10.73;;;2.80;;
38113;SDS011;23926;53.222;6.354;2023-04-25T02:25:07;20.23;;;4.15;;
38113;SDS011;23926;53.222;6.354;2023-04-25T02:27:34;16.45;;;3.53;;
38113;SDS011;23926;53.222;6.354;2023-04-25T02:29:59;13.95;;;3.70;;
38113;SDS011;23926;53.222;6.354;2023-04-25T02:32:25;8.60;;;2.97;;
38113;SDS011;23926;53.222;6.354;2023-04-25T02:34:50;10.70;;;2.75;;
38113;SDS011;23926;53.222;6.354;2023-04-25T02:37:16;17.98;;;3.40;;
38113;SDS011;23926;53.222;6.354;2023-04-25T02:39:41;12.80;;;3.28;;
38113;SDS011;23926;53.222;6.354;2023-04-25T02:42:07;11.88;;;2.50;;
38113;SDS011;23926;53.222;6.354;2023-04-25T02:44:32;14.95;;;2.83;;
38113;SDS011;23926;53.222;6.354;2023-04-25T02:46:57;15.98;;;3.20;;
38113;SDS011;23926;53.222;6.354;2023-04-25T02:49:23;15.43;;;3.70;;
38113;SDS011;23926;53.222;6.354;2023-04-25T02:51:48;15.32;;;2.88;;
38113;SDS011;23926;53.222;6.354;2023-04-25T02:54:13;17.48;;;2.78;;
38113;SDS011;23926;53.222;6.354;2023-04-25T02:56:39;11.75;;;2.63;;
38113;SDS011;23926;53.222;6.354;2023-04-25T02:59:04;22.27;;;2.78;;
38113;SDS011;23926;53.222;6.354;2023-04-25T03:01:30;12.30;;;2.83;;
38113;SDS011;23926;53.222;6.354;2023-04-25T03:03:55;14.48;;;3.20;;
38113;SDS011;23926;53.222;6.354;2023-04-25T03:06:20;19.90;;;3.00;;
38113;SDS011;23926;53.222;6.354;2023-04-25T03:08:46;8.23;;;2.30;;
38113;SDS011;23926;53.222;6.354;2023-04-25T03:11:11;11.95;;;2.47;;
38113;SDS011;23926;53.222;6.354;2023-04-25T03:13:37;7.80;;;2.70;;
38113;SDS011;23926;53.222;6.354;2023-04-25T03:16:02;9.10;;;2.20;;
38113;SDS011;23926;53.222;6.354;2023-04-25T03:18:28;13.30;;;3.00;;
38113;SDS011;23926;53.222;6.354;2023-04-25T03:20:53;12.50;;;2.88;;
38113;SDS011;23926;53.222;6.354;2023-04-25T03:23:18;18.20;;;2.47;;
38113;SDS011;23926;53.222;6.354;2023-04-25T03:25:44;12.80;;;2.92;;
38113;SDS011;23926;53.222;6.354;2023-04-25T03:28:09;12.30;;;2.60;;
38113;SDS011;23926;53.222;6.354;2023-04-25T03:30:34;12.82;;;2.35;;
38113;SDS011;23926;53.222;6.354;2023-04-25T03:33:00;13.15;;;2.75;;
38113;SDS011;23926;53.222;6.354;2023-04-25T03:35:25;16.60;;;2.72;;
38113;SDS011;23926;53.222;6.354;2023-04-25T03:37:50;13.02;;;2.60;;
38113;SDS011;23926;53.222;6.354;2023-04-25T03:40:16;12.00;;;2.20;;
38113;SDS011;23926;53.222;6.354;2023-04-25T03:42:41;20.70;;;3.63;;
38113;SDS011;23926;53.222;6.354;2023-04-25T03:45:07;13.35;;;2.42;;
38113;SDS011;23926;53.222;6.354;2023-04-25T03:47:33;14.95;;;2.97;;
38113;SDS011;23926;53.222;6.354;2023-04-25T03:49:58;16.98;;;2.53;;
38113;SDS011;23926;53.222;6.354;2023-04-25T03:52:25;11.80;;;2.38;;
38113;SDS011;23926;53.222;6.354;2023-04-25T03:54:51;17.05;;;2.45;;
38113;SDS011;23926;53.222;6.354;2023-04-25T03:57:16;15.88;;;3.03;;
38113;SDS011;23926;53.222;6.354;2023-04-25T03:59:41;16.08;;;3.15;;
38113;SDS011;23926;53.222;6.354;2023-04-25T04:02:07;7.25;;;2.80;;
38113;SDS011;23926;53.222;6.354;2023-04-25T04:04:32;15.15;;;2.75;;
38113;SDS011;23926;53.222;6.354;2023-04-25T04:06:58;23.90;;;4.60;;
38113;SDS011;23926;53.222;6.354;2023-04-25T04:09:23;9.07;;;2.05;;
38113;SDS011;23926;53.222;6.354;2023-04-25T04:11:48;15.52;;;2.70;;
38113;SDS011;23926;53.222;6.354;2023-04-25T04:14:14;16.95;;;3.03;;
38113;SDS011;23926;53.222;6.354;2023-04-25T04:16:39;15.20;;;3.03;;
38113;SDS011;23926;53.222;6.354;2023-04-25T04:19:05;19.08;;;3.17;;
38113;SDS011;23926;53.222;6.354;2023-04-25T04:21:30;10.68;;;2.17;;
38113;SDS011;23926;53.222;6.354;2023-04-25T04:23:57;15.90;;;3.28;;
38113;SDS011;23926;53.222;6.354;2023-04-25T04:26:22;9.82;;;2.85;;
38113;SDS011;23926;53.222;6.354;2023-04-25T04:28:49;9.25;;;2.00;;
38113;SDS011;23926;53.222;6.354;2023-04-25T04:31:19;16.05;;;3.10;;
38113;SDS011;23926;53.222;6.354;2023-04-25T04:33:46;11.20;;;2.78;;
38113;SDS011;23926;53.222;6.354;2023-04-25T04:36:12;21.55;;;3.38;;
38113;SDS011;23926;53.222;6.354;2023-04-25T04:38:38;12.40;;;2.85;;
38113;SDS011;23926;53.222;6.354;2023-04-25T04:41:03;13.82;;;2.80;;
38113;SDS011;23926;53.222;6.354;2023-04-25T04:43:29;16.38;;;3.40;;
38113;SDS011;23926;53.222;6.354;2023-04-25T04:45:54;13.05;;;3.40;;
38113;SDS011;23926;53.222;6.354;2023-04-25T04:48:23;13.65;;;2.60;;
38113;SDS011;23926;53.222;6.354;2023-04-25T04:50:48;11.82;;;2.97;;
38113;SDS011;23926;53.222;6.354;2023-04-25T04:53:14;9.82;;;2.28;;
38113;SDS011;23926;53.222;6.354;2023-04-25T04:55:39;12.70;;;2.78;;
38113;SDS011;23926;53.222;6.354;2023-04-25T04:58:06;20.20;;;4.32;;
38113;SDS011;23926;53.222;6.354;2023-04-25T05:00:32;8.50;;;2.85;;
38113;SDS011;23926;53.222;6.354;2023-04-25T05:02:58;12.80;;;2.78;;
38113;SDS011;23926;53.222;6.354;2023-04-25T05:05:24;9.63;;;2.45;;
38113;SDS011;23926;53.222;6.354;2023-04-25T05:07:49;12.05;;;2.85;;
38113;SDS011;23926;53.222;6.354;2023-04-25T05:10:16;13.57;;;2.42;;
38113;SDS011;23926;53.222;6.354;2023-04-25T05:12:42;15.02;;;2.42;;
38113;SDS011;23926;53.222;6.354;2023-04-25T05:15:07;17.42;;;3.22;;
38113;SDS011;23926;53.222;6.354;2023-04-25T05:17:33;11.55;;;2.92;;
38113;SDS011;23926;53.222;6.354;2023-04-25T05:19:59;11.50;;;2.58;;
38113;SDS011;23926;53.222;6.354;2023-04-25T05:22:24;10.18;;;2.55;;
38113;SDS011;23926;53.222;6.354;2023-04-25T05:24:50;17.33;;;2.92;;
38113;SDS011;23926;53.222;6.354;2023-04-25T05:27:16;14.52;;;3.10;;
38113;SDS011;23926;53.222;6.354;2023-04-25T05:29:42;11.05;;;2.33;;
38113;SDS011;23926;53.222;6.354;2023-04-25T05:32:08;5.40;;;2.80;;
38113;SDS011;23926;53.222;6.354;2023-04-25T05:34:34;18.02;;;3.00;;
38113;SDS011;23926;53.222;6.354;2023-04-25T05:36:59;12.95;;;3.40;;
38113;SDS011;23926;53.222;6.354;2023-04-25T05:39:25;12.68;;;2.42;;
38113;SDS011;23926;53.222;6.354;2023-04-25T05:41:51;17.25;;;2.90;;
38113;SDS011;23926;53.222;6.354;2023-04-25T05:44:16;13.25;;;2.65;;
38113;SDS011;23926;53.222;6.354;2023-04-25T05:46:42;13.88;;;2.67;;
38113;SDS011;23926;53.222;6.354;2023-04-25T05:49:07;10.98;;;2.67;;
38113;SDS011;23926;53.222;6.354;2023-04-25T05:51:33;13.60;;;2.28;;
38113;SDS011;23926;53.222;6.354;2023-04-25T05:53:58;12.13;;;2.70;;
38113;SDS011;23926;53.222;6.354;2023-04-25T05:56:23;10.20;;;2.30;;
38113;SDS011;23926;53.222;6.354;2023-04-25T05:58:49;7.32;;;2.42;;
38113;SDS011;23926;53.222;6.354;2023-04-25T06:01:15;18.83;;;3.25;;
38113;SDS011;23926;53.222;6.354;2023-04-25T06:03:41;20.05;;;2.38;;
38113;SDS011;23926;53.222;6.354;2023-04-25T06:06:08;14.13;;;2.70;;
38113;SDS011;23926;53.222;6.354;2023-04-25T06:08:33;13.40;;;2.00;;
38113;SDS011;23926;53.222;6.354;2023-04-25T06:10:59;11.07;;;2.45;;
38113;SDS011;23926;53.222;6.354;2023-04-25T06:13:24;15.32;;;2.65;;
38113;SDS011;23926;53.222;6.354;2023-04-25T06:15:50;6.88;;;2.03;;
38113;SDS011;23926;53.222;6.354;2023-04-25T06:18:16;9.65;;;1.77;;
38113;SDS011;23926;53.222;6.354;2023-04-25T06:20:42;7.97;;;2.33;;
38113;SDS011;23926;53.222;6.354;2023-04-25T06:23:07;8.85;;;2.00;;
38113;SDS011;23926;53.222;6.354;2023-04-25T06:25:32;9.07;;;1.85;;
38113;SDS011;23926;53.222;6.354;2023-04-25T06:27:58;10.40;;;2.20;;
38113;SDS011;23926;53.222;6.354;2023-04-25T06:30:23;10.02;;;1.88;;
38113;SDS011;23926;53.222;6.354;2023-04-25T06:32:51;7.55;;;2.00;;
38113;SDS011;23926;53.222;6.354;2023-04-25T06:35:18;7.85;;;3.10;;
38113;SDS011;23926;53.222;6.354;2023-04-25T06:37:44;10.43;;;2.10;;
38113;SDS011;23926;53.222;6.354;2023-04-25T06:40:09;11.57;;;2.33;;
38113;SDS011;23926;53.222;6.354;2023-04-25T06:42:35;12.10;;;2.20;;
38113;SDS011;23926;53.222;6.354;2023-04-25T06:45:00;9.40;;;2.25;;
38113;SDS011;23926;53.222;6.354;2023-04-25T06:47:26;16.08;;;2.28;;
38113;SDS011;23926;53.222;6.354;2023-04-25T06:49:51;11.38;;;2.33;;
38113;SDS011;23926;53.222;6.354;2023-04-25T06:52:17;10.02;;;2.05;;
38113;SDS011;23926;53.222;6.354;2023-04-25T06:54:43;10.13;;;1.95;;
38113;SDS011;23926;53.222;6.354;2023-04-25T06:57:08;6.88;;;1.70;;
38113;SDS011;23926;53.222;6.354;2023-04-25T06:59:34;12.38;;;2.50;;
38113;SDS011;23926;53.222;6.354;2023-04-25T07:01:59;7.72;;;1.77;;
38113;SDS011;23926;53.222;6.354;2023-04-25T07:04:25;11.57;;;1.92;;
38113;SDS011;23926;53.222;6.354;2023-04-25T07:06:50;8.90;;;2.42;;
38113;SDS011;23926;53.222;6.354;2023-04-25T07:09:16;12.60;;;2.08;;
38113;SDS011;23926;53.222;6.354;2023-04-25T07:11:41;8.88;;;1.85;;
38113;SDS011;23926;53.222;6.354;2023-04-25T07:14:07;8.20;;;2.22;;
38113;SDS011;23926;53.222;6.354;2023-04-25T07:16:32;11.38;;;3.58;;
38113;SDS011;23926;53.222;6.354;2023-04-25T07:18:58;9.18;;;1.95;;
38113;SDS011;23926;53.222;6.354;2023-04-25T07:21:24;5.72;;;2.45;;
38113;SDS011;23926;53.222;6.354;2023-04-25T07:23:50;11.77;;;2.20;;
38113;SDS011;23926;53.222;6.354;2023-04-25T07:26:16;8.07;;;1.88;;
38113;SDS011;23926;53.222;6.354;2023-04-25T07:28:42;13.85;;;2.72;;
38113;SDS011;23926;53.222;6.354;2023-04-25T07:31:08;9.90;;;1.92;;
38113;SDS011;23926;53.222;6.354;2023-04-25T07:33:33;6.40;;;1.67;;
38113;SDS011;23926;53.222;6.354;2023-04-25T07:35:59;12.02;;;1.88;;
38113;SDS011;23926;53.222;6.354;2023-04-25T07:38:25;9.13;;;1.80;;
38113;SDS011;23926;53.222;6.354;2023-04-25T07:40:51;9.80;;;2.20;;
38113;SDS011;23926;53.222;6.354;2023-04-25T07:43:16;4.55;;;1.45;;
38113;SDS011;23926;53.222;6.354;2023-04-25T07:45:45;8.40;;;1.58;;
38113;SDS011;23926;53.222;6.354;2023-04-25T07:48:11;10.15;;;1.70;;
38113;SDS011;23926;53.222;6.354;2023-04-25T07:50:38;10.40;;;2.20;;
38113;SDS011;23926;53.222;6.354;2023-04-25T07:53:03;7.15;;;1.73;;
38113;SDS011;23926;53.222;6.354;2023-04-25T07:55:29;6.40;;;1.50;;
38113;SDS011;23926;53.222;6.354;2023-04-25T07:57:54;7.55;;;2.28;;
38113;SDS011;23926;53.222;6.354;2023-04-25T08:00:20;9.38;;;2.15;;
38113;SDS011;23926;53.222;6.354;2023-04-25T08:02:45;9.88;;;2.17;;
38113;SDS011;23926;53.222;6.354;2023-04-25T08:05:11;6.40;;;1.60;;
38113;SDS011;23926;53.222;6.354;2023-04-25T08:07:40;5.53;;;1.77;;
38113;SDS011;23926;53.222;6.354;2023-04-25T08:10:06;3.20;;;1.20;;
38113;SDS011;23926;53.222;6.354;2023-04-25T08:12:32;7.57;;;1.80;;
38113;SDS011;23926;53.222;6.354;2023-04-25T08:14:58;7.75;;;1.40;;
38113;SDS011;23926;53.222;6.354;2023-04-25T08:17:24;4.13;;;1.52;;
38113;SDS011;23926;53.222;6.354;2023-04-25T08:19:49;7.70;;;1.73;;
38113;SDS011;23926;53.222;6.354;2023-04-25T08:22:15;6.43;;;1.40;;
38113;SDS011;23926;53.222;6.354;2023-04-25T08:24:41;3.50;;;1.55;;
38113;SDS011;23926;53.222;6.354;2023-04-25T08:27:07;9.18;;;1.75;;
38113;SDS011;23926;53.222;6.354;2023-04-25T08:29:33;6.63;;;1.27;;
38113;SDS011;23926;53.222;6.354;2023-04-25T08:31:59;4.90;;;1.50;;
38113;SDS011;23926;53.222;6.354;2023-04-25T08:34:24;5.10;;;1.70;;
38113;SDS011;23926;53.222;6.354;2023-04-25T08:36:50;6.63;;;1.80;;
38113;SDS011;23926;53.222;6.354;2023-04-25T08:39:16;2.17;;;1.42;;
38113;SDS011;23926;53.222;6.354;2023-04-25T08:41:41;10.40;;;1.77;;
38113;SDS011;23926;53.222;6.354;2023-04-25T08:44:09;5.53;;;1.73;;
38113;SDS011;23926;53.222;6.354;2023-04-25T08:46:37;7.60;;;1.60;;
38113;SDS011;23926;53.222;6.354;2023-04-25T08:49:05;17.48;;;1.85;;
38113;SDS011;23926;53.222;6.354;2023-04-25T08:51:31;5.63;;;1.70;;
38113;SDS011;23926;53.222;6.354;2023-04-25T08:53:58;8.85;;;1.95;;
38113;SDS011;23926;53.222;6.354;2023-04-25T08:56:46;10.48;;;1.75;;
38113;SDS011;23926;53.222;6.354;2023-04-25T08:59:13;13.07;;;2.05;;
38113;SDS011;23926;53.222;6.354;2023-04-25T09:01:39;9.80;;;1.52;;
38113;SDS011;23926;53.222;6.354;2023-04-25T09:04:04;5.38;;;1.40;;
38113;SDS011;23926;53.222;6.354;2023-04-25T09:06:30;12.77;;;2.10;;
38113;SDS011;23926;53.222;6.354;2023-04-25T09:09:06;16.00;;;1.98;;
38113;SDS011;23926;53.222;6.354;2023-04-25T09:11:33;7.20;;;1.95;;
38113;SDS011;23926;53.222;6.354;2023-04-25T09:14:12;10.77;;;2.30;;
38113;SDS011;23926;53.222;6.354;2023-04-25T09:21:56;8.77;;;2.30;;
38113;SDS011;23926;53.222;6.354;2023-04-25T09:24:37;14.85;;;2.42;;
38113;SDS011;23926;53.222;6.354;2023-04-25T09:27:08;7.22;;;1.88;;
38113;SDS011;23926;53.222;6.354;2023-04-25T09:29:36;11.35;;;1.60;;
38113;SDS011;23926;53.222;6.354;2023-04-25T09:32:14;8.57;;;1.85;;
38113;SDS011;23926;53.222;6.354;2023-04-25T09:34:43;6.43;;;1.60;;
38113;SDS011;23926;53.222;6.354;2023-04-25T09:37:16;10.55;;;1.90;;
38113;SDS011;23926;53.222;6.354;2023-04-25T09:39:46;3.78;;;1.20;;
38113;SDS011;23926;53.222;6.354;2023-04-25T09:42:13;9.07;;;1.80;;
38113;SDS011;23926;53.222;6.354;2023-04-25T09:44:49;6.35;;;2.08;;
38113;SDS011;23926;53.222;6.354;2023-04-25T09:47:17;9.00;;;1.90;;
38113;SDS011;23926;53.222;6.354;2023-04-25T09:49:43;13.55;;;2.88;;
38113;SDS011;23926;53.222;6.354;2023-04-25T09:52:18;8.48;;;1.95;;
38113;SDS011;23926;53.222;6.354;2023-04-25T09:54:45;16.27;;;2.13;;
38113;SDS011;23926;53.222;6.354;2023-04-25T09:57:16;8.45;;;1.60;;
38113;SDS011;23926;53.222;6.354;2023-04-25T09:59:43;11.60;;;2.13;;
38113;SDS011;23926;53.222;6.354;2023-04-25T10:02:13;9.93;;;2.15;;
38113;SDS011;23926;53.222;6.354;2023-04-25T10:04:41;5.78;;;1.80;;
38113;SDS011;23926;53.222;6.354;2023-04-25T10:07:08;13.13;;;2.95;;
38113;SDS011;23926;53.222;6.354;2023-04-25T10:09:38;11.32;;;2.30;;
38113;SDS011;23926;53.222;6.354;2023-04-25T10:12:05;12.88;;;2.13;;
38113;SDS011;23926;53.222;6.354;2023-04-25T10:14:32;10.93;;;2.22;;
38113;SDS011;23926;53.222;6.354;2023-04-25T10:16:58;8.20;;;1.67;;
38113;SDS011;23926;53.222;6.354;2023-04-25T10:19:25;12.30;;;1.77;;
38113;SDS011;23926;53.222;6.354;2023-04-25T10:21:58;5.57;;;1.77;;
38113;SDS011;23926;53.222;6.354;2023-04-25T10:24:30;9.05;;;1.80;;
38113;SDS011;23926;53.222;6.354;2023-04-25T10:26:56;8.70;;;1.90;;
38113;SDS011;23926;53.222;6.354;2023-04-25T10:29:24;13.93;;;2.17;;
38113;SDS011;23926;53.222;6.354;2023-04-25T10:31:50;11.55;;;1.75;;
38113;SDS011;23926;53.222;6.354;2023-04-25T10:34:16;9.80;;;2.28;;
38113;SDS011;23926;53.222;6.354;2023-04-25T10:36:42;16.45;;;2.80;;
38113;SDS011;23926;53.222;6.354;2023-04-25T10:39:13;9.07;;;2.17;;
38113;SDS011;23926;53.222;6.354;2023-04-25T10:41:53;11.50;;;2.28;;
38113;SDS011;23926;53.222;6.354;2023-04-25T10:44:22;10.57;;;1.90;;
38113;SDS011;23926;53.222;6.354;2023-04-25T10:46:51;5.45;;;1.25;;
38113;SDS011;23926;53.222;6.354;2023-04-25T10:49:41;10.43;;;2.20;;
38113;SDS011;23926;53.222;6.354;2023-04-25T10:52:24;8.15;;;1.75;;
38113;SDS011;23926;53.222;6.354;2023-04-25T10:54:51;10.05;;;2.17;;
38113;SDS011;23926;53.222;6.354;2023-04-25T11:00:09;15.13;;;2.30;;
38113;SDS011;23926;53.222;6.354;2023-04-25T11:02:46;8.27;;;2.13;;
38113;SDS011;23926;53.222;6.354;2023-04-25T11:05:19;11.27;;;2.33;;
38113;SDS011;23926;53.222;6.354;2023-04-25T11:07:53;9.85;;;1.92;;
38113;SDS011;23926;53.222;6.354;2023-04-25T11:10:24;10.75;;;1.85;;
38113;SDS011;23926;53.222;6.354;2023-04-25T11:12:54;8.20;;;1.63;;
38113;SDS011;23926;53.222;6.354;2023-04-25T11:15:20;6.40;;;1.55;;
38113;SDS011;23926;53.222;6.354;2023-04-25T11:17:45;6.90;;;2.05;;
38113;SDS011;23926;53.222;6.354;2023-04-25T11:20:11;16.02;;;2.50;;
38113;SDS011;23926;53.222;6.354;2023-04-25T11:22:39;5.70;;;1.63;;
38113;SDS011;23926;53.222;6.354;2023-04-25T11:25:06;4.57;;;1.48;;
38113;SDS011;23926;53.222;6.354;2023-04-25T11:27:32;7.00;;;1.88;;
38113;SDS011;23926;53.222;6.354;2023-04-25T11:30:09;6.43;;;1.70;;
38113;SDS011;23926;53.222;6.354;2023-04-25T11:32:35;10.38;;;1.80;;
38113;SDS011;23926;53.222;6.354;2023-04-25T11:35:00;9.40;;;2.10;;
38113;SDS011;23926;53.222;6.354;2023-04-25T11:37:26;12.02;;;2.10;;
38113;SDS011;23926;53.222;6.354;2023-04-25T11:39:51;8.18;;;2.00;;
38113;SDS011;23926;53.222;6.354;2023-04-25T11:42:17;14.43;;;2.15;;
38113;SDS011;23926;53.222;6.354;2023-04-25T11:44:42;9.05;;;1.85;;
38113;SDS011;23926;53.222;6.354;2023-04-25T11:47:08;14.57;;;3.17;;
38113;SDS011;23926;53.222;6.354;2023-04-25T11:49:35;7.70;;;1.90;;
38113;SDS011;23926;53.222;6.354;2023-04-25T11:52:00;6.35;;;1.90;;
38113;SDS011;23926;53.222;6.354;2023-04-25T11:54:26;11.50;;;2.28;;
38113;SDS011;23926;53.222;6.354;2023-04-25T11:56:51;7.45;;;1.90;;
38113;SDS011;23926;53.222;6.354;2023-04-25T11:59:16;7.80;;;2.50;;
38113;SDS011;23926;53.222;6.354;2023-04-25T12:01:49;11.77;;;2.65;;
38113;SDS011;23926;53.222;6.354;2023-04-25T12:04:16;11.30;;;2.28;;
38113;SDS011;23926;53.222;6.354;2023-04-25T12:06:46;13.15;;;2.40;;
38113;SDS011;23926;53.222;6.354;2023-04-25T12:09:16;6.25;;;1.45;;
38113;SDS011;23926;53.222;6.354;2023-04-25T12:11:52;7.80;;;1.50;;
38113;SDS011;23926;53.222;6.354;2023-04-25T12:14:22;9.23;;;1.80;;
38113;SDS011;23926;53.222;6.354;2023-04-25T12:16:52;7.60;;;1.60;;
38113;SDS011;23926;53.222;6.354;2023-04-25T12:19:20;9.25;;;1.92;;
38113;SDS011;23926;53.222;6.354;2023-04-25T12:21:46;8.63;;;1.85;;
38113;SDS011;23926;53.222;6.354;2023-04-25T12:24:13;15.10;;;2.17;;
38113;SDS011;23926;53.222;6.354;2023-04-25T12:27:13;12.68;;;2.42;;
38113;SDS011;23926;53.222;6.354;2023-04-25T12:29:33;10.77;;;3.00;;
38113;SDS011;23926;53.222;6.354;2023-04-25T12:31:59;13.20;;;2.20;;
38113;SDS011;23926;53.222;6.354;2023-04-25T12:34:26;9.25;;;1.75;;
38113;SDS011;23926;53.222;6.354;2023-04-25T12:36:52;7.95;;;1.52;;
38113;SDS011;23926;53.222;6.354;2023-04-25T12:39:23;12.32;;;2.10;;
38113;SDS011;23926;53.222;6.354;2023-04-25T12:41:52;7.00;;;1.58;;
38113;SDS011;23926;53.222;6.354;2023-04-25T12:44:19;4.95;;;1.65;;
38113;SDS011;23926;53.222;6.354;2023-04-25T12:46:45;7.30;;;1.92;;
38113;SDS011;23926;53.222;6.354;2023-04-25T12:49:11;11.48;;;3.10;;
38113;SDS011;23926;53.222;6.354;2023-04-25T12:51:37;7.80;;;1.55;;
38113;SDS011;23926;53.222;6.354;2023-04-25T12:54:03;8.57;;;1.70;;
38113;SDS011;23926;53.222;6.354;2023-04-25T12:56:30;7.53;;;1.70;;
38113;SDS011;23926;53.222;6.354;2023-04-25T12:58:56;9.45;;;2.03;;
38113;SDS011;23926;53.222;6.354;2023-04-25T13:01:22;7.28;;;1.65;;
38113;SDS011;23926;53.222;6.354;2023-04-25T13:03:48;6.93;;;1.50;;
38113;SDS011;23926;53.222;6.354;2023-04-25T13:06:14;11.50;;;2.42;;
38113;SDS011;23926;53.222;6.354;2023-04-25T13:08:40;10.52;;;2.03;;
38113;SDS011;23926;53.222;6.354;2023-04-25T13:11:06;15.30;;;2.50;;
38113;SDS011;23926;53.222;6.354;2023-04-25T13:13:32;14.35;;;2.40;;
38113;SDS011;23926;53.222;6.354;2023-04-25T13:15:59;12.40;;;2.22;;
38113;SDS011;23926;53.222;6.354;2023-04-25T13:18:28;23.13;;;3.33;;
38113;SDS011;23926;53.222;6.354;2023-04-25T13:20:54;16.10;;;2.08;;
38113;SDS011;23926;53.222;6.354;2023-04-25T13:23:20;8.82;;;2.08;;
38113;SDS011;23926;53.222;6.354;2023-04-25T13:25:46;6.05;;;1.35;;
38113;SDS011;23926;53.222;6.354;2023-04-25T13:28:12;9.30;;;1.83;;
38113;SDS011;23926;53.222;6.354;2023-04-25T13:30:38;7.40;;;1.48;;
38113;SDS011;23926;53.222;6.354;2023-04-25T13:33:04;5.32;;;1.58;;
38113;SDS011;23926;53.222;6.354;2023-04-25T13:35:31;9.90;;;1.95;;
38113;SDS011;23926;53.222;6.354;2023-04-25T13:37:58;8.27;;;2.10;;
38113;SDS011;23926;53.222;6.354;2023-04-25T13:40:24;5.82;;;2.00;;
38113;SDS011;23926;53.222;6.354;2023-04-25T13:42:49;12.38;;;2.20;;
38113;SDS011;23926;53.222;6.354;2023-04-25T13:45:16;6.57;;;2.00;;
38113;SDS011;23926;53.222;6.354;2023-04-25T13:47:41;8.98;;;1.42;;
38113;SDS011;23926;53.222;6.354;2023-04-25T13:50:07;5.03;;;1.40;;
38113;SDS011;23926;53.222;6.354;2023-04-25T13:52:32;6.68;;;1.83;;
38113;SDS011;23926;53.222;6.354;2023-04-25T13:54:58;7.97;;;1.73;;
38113;SDS011;23926;53.222;6.354;2023-04-25T13:57:24;10.40;;;2.00;;
38113;SDS011;23926;53.222;6.354;2023-04-25T13:59:50;12.13;;;2.00;;
38113;SDS011;23926;53.222;6.354;2023-04-25T14:02:16;10.10;;;2.13;;
38113;SDS011;23926;53.222;6.354;2023-04-25T14:04:42;7.63;;;2.10;;
38113;SDS011;23926;53.222;6.354;2023-04-25T14:07:07;5.82;;;1.70;;
38113;SDS011;23926;53.222;6.354;2023-04-25T14:09:33;4.22;;;2.30;;
38113;SDS011;23926;53.222;6.354;2023-04-25T14:11:59;12.18;;;2.60;;
38113;SDS011;23926;53.222;6.354;2023-04-25T14:14:25;5.85;;;1.67;;
38113;SDS011;23926;53.222;6.354;2023-04-25T14:16:51;4.30;;;1.45;;
38113;SDS011;23926;53.222;6.354;2023-04-25T14:19:18;5.95;;;1.60;;
38113;SDS011;23926;53.222;6.354;2023-04-25T14:21:44;5.15;;;1.60;;
38113;SDS011;23926;53.222;6.354;2023-04-25T14:24:11;7.70;;;1.95;;
38113;SDS011;23926;53.222;6.354;2023-04-25T14:26:36;7.60;;;1.95;;
38113;SDS011;23926;53.222;6.354;2023-04-25T14:29:06;8.95;;;2.08;;
38113;SDS011;23926;53.222;6.354;2023-04-25T14:31:32;6.03;;;1.70;;
38113;SDS011;23926;53.222;6.354;2023-04-25T14:33:58;12.52;;;2.15;;
38113;SDS011;23926;53.222;6.354;2023-04-25T14:36:24;13.55;;;2.80;;
38113;SDS011;23926;53.222;6.354;2023-04-25T14:38:51;12.30;;;2.60;;
38113;SDS011;23926;53.222;6.354;2023-04-25T14:41:17;7.75;;;1.85;;
38113;SDS011;23926;53.222;6.354;2023-04-25T14:43:42;8.07;;;1.80;;
38113;SDS011;23926;53.222;6.354;2023-04-25T14:46:08;5.00;;;1.70;;